sensor_id;sensor_type;location;lat;lon;timestamp;temperature;humidity
25346;DHT22;13300;51.032;3.710;2023-07-20T00:01:23;18.10;99.90
25346;DHT22;13300;51.032;3.710;2023-07-20T00:03:49;18.00;99.90
25346;DHT22;13300;51.032;3.710;2023-07-20T00:06:24;17.90;99.90
25346;DHT22;13300;51.032;3.710;2023-07-20T00:08:51;18.00;99.90
25346;DHT22;13300;51.032;3.710;2023-07-20T00:11:21;18.00;99.90
25346;DHT22;13300;51.032;3.710;2023-07-20T00:13:46;17.90;99.90
25346;DHT22;13300;51.032;3.710;2023-07-20T00:16:15;17.90;99.90
25346;DHT22;13300;51.032;3.710;2023-07-20T00:18:41;17.70;99.90
25346;DHT22;13300;51.032;3.710;2023-07-20T00:21:07;17.80;99.90
25346;DHT22;13300;51.032;3.710;2023-07-20T00:23:33;17.80;99.90
25346;DHT22;13300;51.032;3.710;2023-07-20T00:25:59;17.70;99.90
25346;DHT22;13300;51.032;3.710;2023-07-20T00:28:25;17.60;99.90
25346;DHT22;13300;51.032;3.710;2023-07-20T00:31:00;17.60;99.90
25346;DHT22;13300;51.032;3.710;2023-07-20T00:33:31;17.60;99.90
25346;DHT22;13300;51.032;3.710;2023-07-20T00:35:56;17.50;99.90
25346;DHT22;13300;51.032;3.710;2023-07-20T00:38:22;17.50;99.90
25346;DHT22;13300;51.032;3.710;2023-07-20T00:40:48;17.40;99.90
25346;DHT22;13300;51.032;3.710;2023-07-20T00:43:15;17.30;99.90
25346;DHT22;13300;51.032;3.710;2023-07-20T00:45:47;17.30;99.90
25346;DHT22;13300;51.032;3.710;2023-07-20T00:48:14;17.30;99.90
25346;DHT22;13300;51.032;3.710;2023-07-20T00:50:41;17.20;99.90
25346;DHT22;13300;51.032;3.710;2023-07-20T00:53:07;17.20;99.90
25346;DHT22;13300;51.032;3.710;2023-07-20T00:55:34;17.20;99.90
25346;DHT22;13300;51.032;3.710;2023-07-20T00:58:00;17.30;99.90
25346;DHT22;13300;51.032;3.710;2023-07-20T01:00:26;17.30;99.90
25346;DHT22;13300;51.032;3.710;2023-07-20T01:02:53;17.20;99.90
25346;DHT22;13300;51.032;3.710;2023-07-20T01:05:19;17.30;99.90
25346;DHT22;13300;51.032;3.710;2023-07-20T01:07:58;17.20;99.90
25346;DHT22;13300;51.032;3.710;2023-07-20T01:10:40;17.20;99.90
25346;DHT22;13300;51.032;3.710;2023-07-20T01:13:09;17.20;99.90
25346;DHT22;13300;51.032;3.710;2023-07-20T01:15:35;17.30;99.90
25346;DHT22;13300;51.032;3.710;2023-07-20T01:18:01;17.10;99.90
25346;DHT22;13300;51.032;3.710;2023-07-20T01:20:28;17.10;99.90
25346;DHT22;13300;51.032;3.710;2023-07-20T01:29:21;17.00;99.90
25346;DHT22;13300;51.032;3.710;2023-07-20T01:31:52;17.00;99.90
25346;DHT22;13300;51.032;3.710;2023-07-20T01:34:19;17.00;99.90
25346;DHT22;13300;51.032;3.710;2023-07-20T01:36:46;16.90;99.90
25346;DHT22;13300;51.032;3.710;2023-07-20T01:39:14;16.80;99.90
25346;DHT22;13300;51.032;3.710;2023-07-20T01:41:40;16.80;99.90
25346;DHT22;13300;51.032;3.710;2023-07-20T01:44:06;16.80;99.90
25346;DHT22;13300;51.032;3.710;2023-07-20T01:46:31;16.80;99.90
25346;DHT22;13300;51.032;3.710;2023-07-20T01:48:57;16.70;99.90
25346;DHT22;13300;51.032;3.710;2023-07-20T01:51:23;16.70;99.90
25346;DHT22;13300;51.032;3.710;2023-07-20T01:53:49;16.70;99.90
25346;DHT22;13300;51.032;3.710;2023-07-20T01:56:15;16.60;99.90
25346;DHT22;13300;51.032;3.710;2023-07-20T01:58:41;16.60;99.90
25346;DHT22;13300;51.032;3.710;2023-07-20T02:01:09;16.60;99.90
25346;DHT22;13300;51.032;3.710;2023-07-20T02:03:35;16.50;99.90
25346;DHT22;13300;51.032;3.710;2023-07-20T02:06:01;16.50;99.90
25346;DHT22;13300;51.032;3.710;2023-07-20T02:08:27;16.40;99.90
25346;DHT22;13300;51.032;3.710;2023-07-20T02:10:52;16.40;99.90
25346;DHT22;13300;51.032;3.710;2023-07-20T02:13:18;16.30;99.90
25346;DHT22;13300;51.032;3.710;2023-07-20T02:15:44;16.30;99.90
25346;DHT22;13300;51.032;3.710;2023-07-20T02:18:15;16.30;99.90
25346;DHT22;13300;51.032;3.710;2023-07-20T02:20:43;16.30;99.90
25346;DHT22;13300;51.032;3.710;2023-07-20T02:23:10;16.40;99.90
25346;DHT22;13300;51.032;3.710;2023-07-20T02:25:36;16.50;99.90
25346;DHT22;13300;51.032;3.710;2023-07-20T02:28:04;16.50;99.90
25346;DHT22;13300;51.032;3.710;2023-07-20T02:30:30;16.50;99.90
25346;DHT22;13300;51.032;3.710;2023-07-20T02:32:55;16.60;99.90
25346;DHT22;13300;51.032;3.710;2023-07-20T02:35:24;16.70;99.90
25346;DHT22;13300;51.032;3.710;2023-07-20T02:37:49;16.80;99.90
25346;DHT22;13300;51.032;3.710;2023-07-20T02:40:15;16.90;99.90
25346;DHT22;13300;51.032;3.710;2023-07-20T02:42:41;17.00;99.90
25346;DHT22;13300;51.032;3.710;2023-07-20T02:45:07;16.90;99.90
25346;DHT22;13300;51.032;3.710;2023-07-20T02:47:33;17.00;99.90
25346;DHT22;13300;51.032;3.710;2023-07-20T02:49:59;16.90;99.90
25346;DHT22;13300;51.032;3.710;2023-07-20T02:52:25;17.00;99.90
25346;DHT22;13300;51.032;3.710;2023-07-20T02:54:50;17.00;99.90
25346;DHT22;13300;51.032;3.710;2023-07-20T02:57:17;17.00;99.90
25346;DHT22;13300;51.032;3.710;2023-07-20T02:59:42;17.10;99.90
25346;DHT22;13300;51.032;3.710;2023-07-20T03:02:08;17.10;99.90
25346;DHT22;13300;51.032;3.710;2023-07-20T03:04:37;17.10;99.90
25346;DHT22;13300;51.032;3.710;2023-07-20T03:07:06;17.10;99.90
25346;DHT22;13300;51.032;3.710;2023-07-20T03:09:33;17.10;99.90
25346;DHT22;13300;51.032;3.710;2023-07-20T03:11:58;17.10;99.90
25346;DHT22;13300;51.032;3.710;2023-07-20T03:14:24;17.20;99.90
25346;DHT22;13300;51.032;3.710;2023-07-20T03:16:50;17.20;99.90
25346;DHT22;13300;51.032;3.710;2023-07-20T03:19:16;17.20;99.90
25346;DHT22;13300;51.032;3.710;2023-07-20T03:21:41;17.20;99.90
25346;DHT22;13300;51.032;3.710;2023-07-20T03:24:08;17.30;99.90
25346;DHT22;13300;51.032;3.710;2023-07-20T03:26:34;17.30;99.90
25346;DHT22;13300;51.032;3.710;2023-07-20T03:29:00;17.20;99.90
25346;DHT22;13300;51.032;3.710;2023-07-20T03:31:26;17.20;99.90
25346;DHT22;13300;51.032;3.710;2023-07-20T03:33:52;17.30;99.90
25346;DHT22;13300;51.032;3.710;2023-07-20T03:36:18;17.30;99.90
25346;DHT22;13300;51.032;3.710;2023-07-20T03:38:45;17.30;99.90
25346;DHT22;13300;51.032;3.710;2023-07-20T03:41:11;17.30;99.90
25346;DHT22;13300;51.032;3.710;2023-07-20T03:43:37;17.30;99.90
25346;DHT22;13300;51.032;3.710;2023-07-20T03:46:03;17.30;99.90
25346;DHT22;13300;51.032;3.710;2023-07-20T03:48:32;17.40;99.90
25346;DHT22;13300;51.032;3.710;2023-07-20T03:51:00;17.40;99.90
25346;DHT22;13300;51.032;3.710;2023-07-20T03:53:26;17.20;99.90
25346;DHT22;13300;51.032;3.710;2023-07-20T03:55:54;17.20;99.90
25346;DHT22;13300;51.032;3.710;2023-07-20T03:58:20;17.20;99.90
25346;DHT22;13300;51.032;3.710;2023-07-20T04:00:51;17.20;99.90
25346;DHT22;13300;51.032;3.710;2023-07-20T04:03:19;17.20;99.90
25346;DHT22;13300;51.032;3.710;2023-07-20T04:05:46;17.20;99.90
25346;DHT22;13300;51.032;3.710;2023-07-20T04:08:14;17.30;99.90
25346;DHT22;13300;51.032;3.710;2023-07-20T04:10:47;17.20;99.90
25346;DHT22;13300;51.032;3.710;2023-07-20T04:13:13;17.20;99.90
25346;DHT22;13300;51.032;3.710;2023-07-20T04:15:42;17.20;99.90
25346;DHT22;13300;51.032;3.710;2023-07-20T04:18:08;17.20;99.90
25346;DHT22;13300;51.032;3.710;2023-07-20T04:20:34;17.30;99.90
25346;DHT22;13300;51.032;3.710;2023-07-20T04:22:59;17.20;99.90
25346;DHT22;13300;51.032;3.710;2023-07-20T04:25:28;17.20;99.90
25346;DHT22;13300;51.032;3.710;2023-07-20T04:27:53;17.20;99.90
25346;DHT22;13300;51.032;3.710;2023-07-20T04:30:26;17.20;99.90
25346;DHT22;13300;51.032;3.710;2023-07-20T04:33:04;17.30;99.90
25346;DHT22;13300;51.032;3.710;2023-07-20T04:35:51;17.30;99.90
25346;DHT22;13300;51.032;3.710;2023-07-20T04:38:21;17.40;99.90
25346;DHT22;13300;51.032;3.710;2023-07-20T04:40:52;17.40;99.90
25346;DHT22;13300;51.032;3.710;2023-07-20T04:43:26;17.50;99.90
25346;DHT22;13300;51.032;3.710;2023-07-20T04:45:52;17.50;99.90
25346;DHT22;13300;51.032;3.710;2023-07-20T04:48:18;17.50;99.90
25346;DHT22;13300;51.032;3.710;2023-07-20T04:50:45;17.50;99.90
25346;DHT22;13300;51.032;3.710;2023-07-20T04:53:12;17.50;99.90
25346;DHT22;13300;51.032;3.710;2023-07-20T04:55:39;17.60;99.90
25346;DHT22;13300;51.032;3.710;2023-07-20T04:58:06;17.60;99.90
25346;DHT22;13300;51.032;3.710;2023-07-20T05:00:37;17.70;99.90
25346;DHT22;13300;51.032;3.710;2023-07-20T05:03:06;17.80;99.90
25346;DHT22;13300;51.032;3.710;2023-07-20T05:05:34;17.80;99.90
25346;DHT22;13300;51.032;3.710;2023-07-20T05:08:04;17.80;99.90
25346;DHT22;13300;51.032;3.710;2023-07-20T05:10:32;17.90;99.90
25346;DHT22;13300;51.032;3.710;2023-07-20T05:12:59;18.00;99.90
25346;DHT22;13300;51.032;3.710;2023-07-20T05:15:25;18.10;99.90
25346;DHT22;13300;51.032;3.710;2023-07-20T05:17:50;18.20;99.90
25346;DHT22;13300;51.032;3.710;2023-07-20T05:20:19;18.30;99.90
25346;DHT22;13300;51.032;3.710;2023-07-20T05:22:46;18.30;99.90
25346;DHT22;13300;51.032;3.710;2023-07-20T05:25:13;18.50;99.90
25346;DHT22;13300;51.032;3.710;2023-07-20T05:27:42;18.60;99.90
25346;DHT22;13300;51.032;3.710;2023-07-20T05:30:10;18.60;99.90
25346;DHT22;13300;51.032;3.710;2023-07-20T05:32:36;18.60;99.90
25346;DHT22;13300;51.032;3.710;2023-07-20T05:35:02;18.70;99.90
25346;DHT22;13300;51.032;3.710;2023-07-20T05:37:31;18.80;99.90
25346;DHT22;13300;51.032;3.710;2023-07-20T05:39:57;18.80;99.90
25346;DHT22;13300;51.032;3.710;2023-07-20T05:42:23;18.90;99.90
25346;DHT22;13300;51.032;3.710;2023-07-20T05:44:49;18.90;99.90
25346;DHT22;13300;51.032;3.710;2023-07-20T05:50:36;19.30;99.90
25346;DHT22;13300;51.032;3.710;2023-07-20T05:53:01;19.40;99.90
25346;DHT22;13300;51.032;3.710;2023-07-20T05:55:31;19.40;99.90
25346;DHT22;13300;51.032;3.710;2023-07-20T05:57:57;19.50;99.90
25346;DHT22;13300;51.032;3.710;2023-07-20T06:00:23;19.50;99.90
25346;DHT22;13300;51.032;3.710;2023-07-20T06:02:52;19.70;99.90
25346;DHT22;13300;51.032;3.710;2023-07-20T06:05:24;19.90;99.90
25346;DHT22;13300;51.032;3.710;2023-07-20T06:07:52;19.90;99.90
25346;DHT22;13300;51.032;3.710;2023-07-20T06:10:20;20.00;99.90
25346;DHT22;13300;51.032;3.710;2023-07-20T06:12:50;20.00;99.90
25346;DHT22;13300;51.032;3.710;2023-07-20T06:15:27;20.20;99.90
25346;DHT22;13300;51.032;3.710;2023-07-20T06:17:54;20.30;99.90
25346;DHT22;13300;51.032;3.710;2023-07-20T06:20:22;20.40;99.90
25346;DHT22;13300;51.032;3.710;2023-07-20T06:22:48;20.60;99.90
25346;DHT22;13300;51.032;3.710;2023-07-20T06:25:15;20.60;99.90
25346;DHT22;13300;51.032;3.710;2023-07-20T06:27:42;20.70;99.90
25346;DHT22;13300;51.032;3.710;2023-07-20T06:30:08;20.90;99.90
25346;DHT22;13300;51.032;3.710;2023-07-20T06:32:36;21.00;99.90
25346;DHT22;13300;51.032;3.710;2023-07-20T06:35:01;21.30;99.90
25346;DHT22;13300;51.032;3.710;2023-07-20T06:37:27;21.50;99.90
25346;DHT22;13300;51.032;3.710;2023-07-20T06:39:58;21.80;99.90
25346;DHT22;13300;51.032;3.710;2023-07-20T06:42:26;21.80;99.90
25346;DHT22;13300;51.032;3.710;2023-07-20T06:44:54;21.80;99.90
25346;DHT22;13300;51.032;3.710;2023-07-20T06:47:20;21.90;99.90
25346;DHT22;13300;51.032;3.710;2023-07-20T06:49:46;21.80;99.90
25346;DHT22;13300;51.032;3.710;2023-07-20T06:52:15;21.90;99.90
25346;DHT22;13300;51.032;3.710;2023-07-20T06:54:41;22.00;99.90
25346;DHT22;13300;51.032;3.710;2023-07-20T06:57:09;22.30;99.90
25346;DHT22;13300;51.032;3.710;2023-07-20T06:59:35;22.60;99.90
25346;DHT22;13300;51.032;3.710;2023-07-20T07:02:00;22.80;99.90
25346;DHT22;13300;51.032;3.710;2023-07-20T07:04:26;23.00;99.90
25346;DHT22;13300;51.032;3.710;2023-07-20T07:06:52;23.20;99.90
25346;DHT22;13300;51.032;3.710;2023-07-20T07:09:23;23.30;99.90
25346;DHT22;13300;51.032;3.710;2023-07-20T07:11:51;23.10;99.90
25346;DHT22;13300;51.032;3.710;2023-07-20T07:14:23;22.80;99.90
25346;DHT22;13300;51.032;3.710;2023-07-20T07:16:51;22.60;99.90
25346;DHT22;13300;51.032;3.710;2023-07-20T07:19:17;22.50;99.90
25346;DHT22;13300;51.032;3.710;2023-07-20T07:21:42;22.40;99.90
25346;DHT22;13300;51.032;3.710;2023-07-20T07:24:08;22.30;99.90
25346;DHT22;13300;51.032;3.710;2023-07-20T07:26:36;22.20;99.90
25346;DHT22;13300;51.032;3.710;2023-07-20T07:29:02;22.10;99.90
25346;DHT22;13300;51.032;3.710;2023-07-20T07:31:30;22.00;99.90
25346;DHT22;13300;51.032;3.710;2023-07-20T07:33:56;21.90;99.90
25346;DHT22;13300;51.032;3.710;2023-07-20T07:36:22;22.10;99.90
25346;DHT22;13300;51.032;3.710;2023-07-20T07:38:49;22.20;99.90
25346;DHT22;13300;51.032;3.710;2023-07-20T07:41:15;22.60;99.90
25346;DHT22;13300;51.032;3.710;2023-07-20T07:43:41;23.00;99.90
25346;DHT22;13300;51.032;3.710;2023-07-20T07:46:07;23.30;99.90
25346;DHT22;13300;51.032;3.710;2023-07-20T07:48:32;23.50;99.90
25346;DHT22;13300;51.032;3.710;2023-07-20T07:50:58;23.60;99.90
25346;DHT22;13300;51.032;3.710;2023-07-20T07:53:24;24.10;99.90
25346;DHT22;13300;51.032;3.710;2023-07-20T07:55:51;25.10;99.90
25346;DHT22;13300;51.032;3.710;2023-07-20T07:58:17;25.90;99.90
25346;DHT22;13300;51.032;3.710;2023-07-20T08:00:43;26.40;99.90
25346;DHT22;13300;51.032;3.710;2023-07-20T08:03:10;26.90;99.90
25346;DHT22;13300;51.032;3.710;2023-07-20T08:05:36;27.10;99.90
25346;DHT22;13300;51.032;3.710;2023-07-20T08:08:04;27.30;99.90
25346;DHT22;13300;51.032;3.710;2023-07-20T08:10:30;27.60;99.90
25346;DHT22;13300;51.032;3.710;2023-07-20T08:12:56;28.20;99.90
25346;DHT22;13300;51.032;3.710;2023-07-20T08:15:22;28.60;98.90
25346;DHT22;13300;51.032;3.710;2023-07-20T08:17:48;28.80;98.70
25346;DHT22;13300;51.032;3.710;2023-07-20T08:20:17;28.20;99.50
25346;DHT22;13300;51.032;3.710;2023-07-20T08:22:43;27.90;99.90
25346;DHT22;13300;51.032;3.710;2023-07-20T08:25:09;27.60;99.90
25346;DHT22;13300;51.032;3.710;2023-07-20T08:27:36;27.10;99.90
25346;DHT22;13300;51.032;3.710;2023-07-20T08:30:02;26.90;99.90
25346;DHT22;13300;51.032;3.710;2023-07-20T08:32:28;27.00;99.90
25346;DHT22;13300;51.032;3.710;2023-07-20T08:34:54;27.00;99.90
25346;DHT22;13300;51.032;3.710;2023-07-20T08:37:19;27.00;99.90
25346;DHT22;13300;51.032;3.710;2023-07-20T08:39:45;26.80;99.90
25346;DHT22;13300;51.032;3.710;2023-07-20T08:42:12;26.30;99.90
25346;DHT22;13300;51.032;3.710;2023-07-20T08:44:41;26.20;99.90
25346;DHT22;13300;51.032;3.710;2023-07-20T08:47:09;26.20;99.90
25346;DHT22;13300;51.032;3.710;2023-07-20T08:49:36;26.40;99.90
25346;DHT22;13300;51.032;3.710;2023-07-20T08:52:04;26.50;99.90
25346;DHT22;13300;51.032;3.710;2023-07-20T08:54:31;26.40;99.90
25346;DHT22;13300;51.032;3.710;2023-07-20T08:57:04;26.40;99.90
25346;DHT22;13300;51.032;3.710;2023-07-20T08:59:30;26.70;99.90
25346;DHT22;13300;51.032;3.710;2023-07-20T09:01:58;26.70;99.90
25346;DHT22;13300;51.032;3.710;2023-07-20T09:04:24;26.70;99.90
25346;DHT22;13300;51.032;3.710;2023-07-20T09:06:53;26.30;99.90
25346;DHT22;13300;51.032;3.710;2023-07-20T09:09:18;26.30;99.90
25346;DHT22;13300;51.032;3.710;2023-07-20T09:11:47;26.30;99.90
25346;DHT22;13300;51.032;3.710;2023-07-20T09:14:14;26.30;99.90
25346;DHT22;13300;51.032;3.710;2023-07-20T09:16:55;26.30;99.90
25346;DHT22;13300;51.032;3.710;2023-07-20T09:19:22;26.50;99.90
25346;DHT22;13300;51.032;3.710;2023-07-20T09:21:52;26.60;99.90
25346;DHT22;13300;51.032;3.710;2023-07-20T09:24:18;26.30;99.90
25346;DHT22;13300;51.032;3.710;2023-07-20T09:26:47;26.50;99.90
25346;DHT22;13300;51.032;3.710;2023-07-20T09:29:19;26.70;99.90
25346;DHT22;13300;51.032;3.710;2023-07-20T09:32:02;26.70;99.90
25346;DHT22;13300;51.032;3.710;2023-07-20T09:34:31;26.70;99.90
25346;DHT22;13300;51.032;3.710;2023-07-20T09:36:58;26.60;99.90
25346;DHT22;13300;51.032;3.710;2023-07-20T09:39:24;26.50;99.90
25346;DHT22;13300;51.032;3.710;2023-07-20T09:41:51;26.30;99.90
25346;DHT22;13300;51.032;3.710;2023-07-20T09:44:17;26.20;99.90
25346;DHT22;13300;51.032;3.710;2023-07-20T09:46:50;25.80;99.90
25346;DHT22;13300;51.032;3.710;2023-07-20T09:49:17;25.70;99.90
25346;DHT22;13300;51.032;3.710;2023-07-20T09:51:44;25.50;99.90
25346;DHT22;13300;51.032;3.710;2023-07-20T09:54:13;26.00;99.90
25346;DHT22;13300;51.032;3.710;2023-07-20T09:56:39;26.30;99.90
25346;DHT22;13300;51.032;3.710;2023-07-20T09:59:06;26.40;99.90
25346;DHT22;13300;51.032;3.710;2023-07-20T10:01:33;26.50;99.90
25346;DHT22;13300;51.032;3.710;2023-07-20T10:04:03;27.00;99.90
25346;DHT22;13300;51.032;3.710;2023-07-20T10:06:33;27.20;99.90
25346;DHT22;13300;51.032;3.710;2023-07-20T10:09:03;27.40;99.90
25346;DHT22;13300;51.032;3.710;2023-07-20T10:11:32;28.00;99.90
25346;DHT22;13300;51.032;3.710;2023-07-20T10:13:59;29.30;97.60
25346;DHT22;13300;51.032;3.710;2023-07-20T10:16:35;29.70;95.10
25346;DHT22;13300;51.032;3.710;2023-07-20T10:19:11;29.30;97.20
25346;DHT22;13300;51.032;3.710;2023-07-20T10:21:42;29.30;96.90
25346;DHT22;13300;51.032;3.710;2023-07-20T10:24:19;29.70;96.00
25346;DHT22;13300;51.032;3.710;2023-07-20T10:26:44;30.40;94.40
25346;DHT22;13300;51.032;3.710;2023-07-20T10:29:11;30.30;93.70
25346;DHT22;13300;51.032;3.710;2023-07-20T10:31:38;30.10;94.20
25346;DHT22;13300;51.032;3.710;2023-07-20T10:34:04;30.70;94.00
25346;DHT22;13300;51.032;3.710;2023-07-20T10:36:32;30.80;92.40
25346;DHT22;13300;51.032;3.710;2023-07-20T10:39:25;30.80;92.30
25346;DHT22;13300;51.032;3.710;2023-07-20T10:42:03;30.90;92.80
25346;DHT22;13300;51.032;3.710;2023-07-20T10:44:30;31.60;91.30
25346;DHT22;13300;51.032;3.710;2023-07-20T10:47:02;31.40;90.10
25346;DHT22;13300;51.032;3.710;2023-07-20T10:49:33;30.70;90.60
25346;DHT22;13300;51.032;3.710;2023-07-20T10:52:05;30.30;90.70
25346;DHT22;13300;51.032;3.710;2023-07-20T10:54:34;29.90;90.10
25346;DHT22;13300;51.032;3.710;2023-07-20T10:57:29;29.20;92.00
25346;DHT22;13300;51.032;3.710;2023-07-20T11:00:25;28.30;93.30
25346;DHT22;13300;51.032;3.710;2023-07-20T11:03:01;27.70;93.60
25346;DHT22;13300;51.032;3.710;2023-07-20T11:05:38;27.50;94.30
25346;DHT22;13300;51.032;3.710;2023-07-20T11:08:41;26.90;95.40
25346;DHT22;13300;51.032;3.710;2023-07-20T11:11:27;26.60;95.70
25346;DHT22;13300;51.032;3.710;2023-07-20T11:14:01;26.30;97.30
25346;DHT22;13300;51.032;3.710;2023-07-20T11:19:13;25.70;97.90
25346;DHT22;13300;51.032;3.710;2023-07-20T11:21:43;25.40;98.70
25346;DHT22;13300;51.032;3.710;2023-07-20T11:24:09;25.30;98.60
25346;DHT22;13300;51.032;3.710;2023-07-20T11:26:41;25.10;98.50
25346;DHT22;13300;51.032;3.710;2023-07-20T11:29:07;24.80;98.70
25346;DHT22;13300;51.032;3.710;2023-07-20T11:31:43;24.30;99.70
25346;DHT22;13300;51.032;3.710;2023-07-20T11:34:12;24.30;99.90
25346;DHT22;13300;51.032;3.710;2023-07-20T11:36:42;24.60;99.80
25346;DHT22;13300;51.032;3.710;2023-07-20T11:39:09;24.50;99.80
25346;DHT22;13300;51.032;3.710;2023-07-20T11:41:38;24.50;99.90
25346;DHT22;13300;51.032;3.710;2023-07-20T11:44:07;24.20;99.90
25346;DHT22;13300;51.032;3.710;2023-07-20T11:46:33;23.90;99.90
25346;DHT22;13300;51.032;3.710;2023-07-20T11:49:03;23.90;99.90
25346;DHT22;13300;51.032;3.710;2023-07-20T11:51:29;23.90;99.90
25346;DHT22;13300;51.032;3.710;2023-07-20T11:53:56;24.00;99.90
25346;DHT22;13300;51.032;3.710;2023-07-20T11:56:26;24.10;99.90
25346;DHT22;13300;51.032;3.710;2023-07-20T11:58:56;24.20;99.90
25346;DHT22;13300;51.032;3.710;2023-07-20T12:01:26;24.30;99.90
25346;DHT22;13300;51.032;3.710;2023-07-20T12:04:02;24.30;99.90
25346;DHT22;13300;51.032;3.710;2023-07-20T12:06:29;24.40;99.90
25346;DHT22;13300;51.032;3.710;2023-07-20T12:08:56;24.60;99.90
25346;DHT22;13300;51.032;3.710;2023-07-20T12:11:38;24.60;99.90
25346;DHT22;13300;51.032;3.710;2023-07-20T12:14:07;24.10;99.90
25346;DHT22;13300;51.032;3.710;2023-07-20T12:16:34;23.80;99.90
25346;DHT22;13300;51.032;3.710;2023-07-20T12:21:28;22.70;99.90
25346;DHT22;13300;51.032;3.710;2023-07-20T12:23:56;22.80;99.90
25346;DHT22;13300;51.032;3.710;2023-07-20T12:26:29;22.40;99.90
25346;DHT22;13300;51.032;3.710;2023-07-20T12:28:57;22.20;99.90
25346;DHT22;13300;51.032;3.710;2023-07-20T12:31:27;22.20;99.90
25346;DHT22;13300;51.032;3.710;2023-07-20T12:33:54;22.20;99.90
25346;DHT22;13300;51.032;3.710;2023-07-20T12:36:25;22.80;99.90
25346;DHT22;13300;51.032;3.710;2023-07-20T12:38:58;23.50;99.90
25346;DHT22;13300;51.032;3.710;2023-07-20T12:41:29;24.90;99.90
25346;DHT22;13300;51.032;3.710;2023-07-20T12:43:55;26.60;99.90
25346;DHT22;13300;51.032;3.710;2023-07-20T12:46:25;28.30;99.90
25346;DHT22;13300;51.032;3.710;2023-07-20T12:48:54;29.50;97.90
25346;DHT22;13300;51.032;3.710;2023-07-20T12:51:20;30.40;96.50
25346;DHT22;13300;51.032;3.710;2023-07-20T12:53:45;30.90;93.20
25346;DHT22;13300;51.032;3.710;2023-07-20T12:56:15;29.60;95.20
25346;DHT22;13300;51.032;3.710;2023-07-20T12:58:41;30.00;96.20
25346;DHT22;13300;51.032;3.710;2023-07-20T13:01:07;30.80;93.40
25346;DHT22;13300;51.032;3.710;2023-07-20T13:03:33;31.50;93.30
25346;DHT22;13300;51.032;3.710;2023-07-20T13:05:59;31.90;91.30
25346;DHT22;13300;51.032;3.710;2023-07-20T13:08:36;31.70;90.50
25346;DHT22;13300;51.032;3.710;2023-07-20T13:11:02;31.60;90.90
25346;DHT22;13300;51.032;3.710;2023-07-20T13:13:30;29.90;92.00
25346;DHT22;13300;51.032;3.710;2023-07-20T13:16:37;28.80;92.30
25346;DHT22;13300;51.032;3.710;2023-07-20T13:19:03;26.90;94.60
25346;DHT22;13300;51.032;3.710;2023-07-20T13:21:29;26.80;94.60
25346;DHT22;13300;51.032;3.710;2023-07-20T13:23:57;26.40;94.70
25346;DHT22;13300;51.032;3.710;2023-07-20T13:26:24;26.40;94.90
25346;DHT22;13300;51.032;3.710;2023-07-20T13:28:50;26.40;94.90
25346;DHT22;13300;51.032;3.710;2023-07-20T13:31:17;26.30;94.70
25346;DHT22;13300;51.032;3.710;2023-07-20T13:33:45;25.90;95.30
25346;DHT22;13300;51.032;3.710;2023-07-20T13:36:15;25.90;95.80
25346;DHT22;13300;51.032;3.710;2023-07-20T13:38:47;25.70;95.80
25346;DHT22;13300;51.032;3.710;2023-07-20T13:41:14;25.40;96.10
25346;DHT22;13300;51.032;3.710;2023-07-20T13:43:43;25.10;97.40
25346;DHT22;13300;51.032;3.710;2023-07-20T13:46:13;25.00;97.60
25346;DHT22;13300;51.032;3.710;2023-07-20T13:48:41;25.10;98.70
25346;DHT22;13300;51.032;3.710;2023-07-20T13:51:18;25.00;98.50
25346;DHT22;13300;51.032;3.710;2023-07-20T13:53:54;25.00;97.80
25346;DHT22;13300;51.032;3.710;2023-07-20T13:56:20;24.70;98.50
25346;DHT22;13300;51.032;3.710;2023-07-20T13:58:47;24.60;99.00
25346;DHT22;13300;51.032;3.710;2023-07-20T14:01:13;24.40;99.30
25346;DHT22;13300;51.032;3.710;2023-07-20T14:03:39;24.00;99.90
25346;DHT22;13300;51.032;3.710;2023-07-20T14:06:05;23.30;99.90
25346;DHT22;13300;51.032;3.710;2023-07-20T14:08:31;22.70;99.90
25346;DHT22;13300;51.032;3.710;2023-07-20T14:11:31;22.10;99.90
25346;DHT22;13300;51.032;3.710;2023-07-20T14:14:16;21.40;99.90
25346;DHT22;13300;51.032;3.710;2023-07-20T14:16:42;20.80;99.90
25346;DHT22;13300;51.032;3.710;2023-07-20T14:19:08;20.40;99.90
25346;DHT22;13300;51.032;3.710;2023-07-20T14:21:35;20.10;99.90
25346;DHT22;13300;51.032;3.710;2023-07-20T14:24:02;19.90;99.90
25346;DHT22;13300;51.032;3.710;2023-07-20T14:26:28;19.90;99.90
25346;DHT22;13300;51.032;3.710;2023-07-20T14:29:01;19.90;99.90
25346;DHT22;13300;51.032;3.710;2023-07-20T14:31:31;19.90;99.90
25346;DHT22;13300;51.032;3.710;2023-07-20T14:34:05;19.90;99.90
25346;DHT22;13300;51.032;3.710;2023-07-20T14:36:33;19.80;99.90
25346;DHT22;13300;51.032;3.710;2023-07-20T14:39:01;19.80;99.90
25346;DHT22;13300;51.032;3.710;2023-07-20T14:41:27;19.90;99.90
25346;DHT22;13300;51.032;3.710;2023-07-20T14:43:52;19.90;99.90
25346;DHT22;13300;51.032;3.710;2023-07-20T14:46:20;19.80;99.90
25346;DHT22;13300;51.032;3.710;2023-07-20T14:48:49;19.70;99.90
25346;DHT22;13300;51.032;3.710;2023-07-20T14:51:15;19.70;99.90
25346;DHT22;13300;51.032;3.710;2023-07-20T14:53:40;19.60;99.90
25346;DHT22;13300;51.032;3.710;2023-07-20T14:56:06;19.50;99.90
25346;DHT22;13300;51.032;3.710;2023-07-20T14:58:33;19.50;99.90
25346;DHT22;13300;51.032;3.710;2023-07-20T15:00:58;19.60;99.90
25346;DHT22;13300;51.032;3.710;2023-07-20T15:03:24;19.50;99.90
25346;DHT22;13300;51.032;3.710;2023-07-20T15:05:50;19.40;99.90
25346;DHT22;13300;51.032;3.710;2023-07-20T15:08:17;19.30;99.90
25346;DHT22;13300;51.032;3.710;2023-07-20T15:10:45;19.00;99.90
25346;DHT22;13300;51.032;3.710;2023-07-20T15:13:15;18.80;99.90
25346;DHT22;13300;51.032;3.710;2023-07-20T15:15:40;18.70;99.90
25346;DHT22;13300;51.032;3.710;2023-07-20T15:18:07;18.80;99.90
25346;DHT22;13300;51.032;3.710;2023-07-20T15:20:34;19.00;99.90
25346;DHT22;13300;51.032;3.710;2023-07-20T15:23:00;19.10;99.90
25346;DHT22;13300;51.032;3.710;2023-07-20T15:25:26;19.20;99.90
25346;DHT22;13300;51.032;3.710;2023-07-20T15:27:51;19.30;99.90
25346;DHT22;13300;51.032;3.710;2023-07-20T15:30:18;19.20;99.90
25346;DHT22;13300;51.032;3.710;2023-07-20T15:32:43;19.10;99.90
25346;DHT22;13300;51.032;3.710;2023-07-20T15:35:10;19.10;99.90
25346;DHT22;13300;51.032;3.710;2023-07-20T15:37:36;19.00;99.90
25346;DHT22;13300;51.032;3.710;2023-07-20T15:40:02;18.90;99.90
25346;DHT22;13300;51.032;3.710;2023-07-20T15:42:32;19.10;99.90
25346;DHT22;13300;51.032;3.710;2023-07-20T15:44:58;19.40;99.90
25346;DHT22;13300;51.032;3.710;2023-07-20T15:47:23;19.90;99.90
25346;DHT22;13300;51.032;3.710;2023-07-20T15:49:49;20.60;99.90
25346;DHT22;13300;51.032;3.710;2023-07-20T15:52:15;21.40;99.90